sensor_id;sensor_type;location;lat;lon;timestamp;P1;durP1;ratioP1;P2;durP2;ratioP2
8490;SDS011;4282;49.986;7.938;2023-08-01T00:00:43;6.33;;;3.70;;
8490;SDS011;4282;49.986;7.938;2023-08-01T00:03:14;9.70;;;4.50;;
8490;SDS011;4282;49.986;7.938;2023-08-01T00:05:42;6.17;;;4.27;;
8490;SDS011;4282;49.986;7.938;2023-08-01T00:08:10;7.47;;;4.30;;
8490;SDS011;4282;49.986;7.938;2023-08-01T00:10:40;7.40;;;3.93;;
8490;SDS011;4282;49.986;7.938;2023-08-01T00:13:08;8.17;;;4.60;;
8490;SDS011;4282;49.986;7.938;2023-08-01T00:15:37;9.93;;;3.90;;
8490;SDS011;4282;49.986;7.938;2023-08-01T00:18:05;8.10;;;4.17;;
8490;SDS011;4282;49.986;7.938;2023-08-01T00:20:36;8.73;;;5.17;;
8490;SDS011;4282;49.986;7.938;2023-08-01T00:23:04;7.70;;;4.60;;
8490;SDS011;4282;49.986;7.938;2023-08-01T00:25:33;7.33;;;4.57;;
8490;SDS011;4282;49.986;7.938;2023-08-01T00:28:01;8.87;;;4.80;;
8490;SDS011;4282;49.986;7.938;2023-08-01T00:30:29;9.97;;;4.50;;
8490;SDS011;4282;49.986;7.938;2023-08-01T00:32:57;7.17;;;4.40;;
8490;SDS011;4282;49.986;7.938;2023-08-01T00:35:26;8.60;;;4.30;;
8490;SDS011;4282;49.986;7.938;2023-08-01T00:37:57;11.00;;;5.13;;
8490;SDS011;4282;49.986;7.938;2023-08-01T00:40:29;5.83;;;4.13;;
8490;SDS011;4282;49.986;7.938;2023-08-01T00:42:57;8.57;;;4.10;;
8490;SDS011;4282;49.986;7.938;2023-08-01T00:45:26;6.97;;;4.30;;
8490;SDS011;4282;49.986;7.938;2023-08-01T00:47:54;7.70;;;4.40;;
8490;SDS011;4282;49.986;7.938;2023-08-01T00:50:23;12.27;;;4.90;;
8490;SDS011;4282;49.986;7.938;2023-08-01T00:52:51;9.40;;;4.67;;
8490;SDS011;4282;49.986;7.938;2023-08-01T00:55:23;5.77;;;3.70;;
8490;SDS011;4282;49.986;7.938;2023-08-01T00:57:51;6.60;;;4.47;;
8490;SDS011;4282;49.986;7.938;2023-08-01T01:00:20;5.30;;;4.13;;
8490;SDS011;4282;49.986;7.938;2023-08-01T01:02:49;9.10;;;4.43;;
8490;SDS011;4282;49.986;7.938;2023-08-01T01:05:17;6.10;;;4.30;;
8490;SDS011;4282;49.986;7.938;2023-08-01T01:07:46;7.47;;;4.60;;
8490;SDS011;4282;49.986;7.938;2023-08-01T01:10:15;6.07;;;4.03;;
8490;SDS011;4282;49.986;7.938;2023-08-01T01:12:45;5.93;;;4.10;;
8490;SDS011;4282;49.986;7.938;2023-08-01T01:15:15;8.00;;;3.80;;
8490;SDS011;4282;49.986;7.938;2023-08-01T01:17:43;5.93;;;4.20;;
8490;SDS011;4282;49.986;7.938;2023-08-01T01:20:12;6.20;;;3.60;;
8490;SDS011;4282;49.986;7.938;2023-08-01T01:22:42;11.03;;;4.87;;
8490;SDS011;4282;49.986;7.938;2023-08-01T01:25:11;8.83;;;4.00;;
8490;SDS011;4282;49.986;7.938;2023-08-01T01:27:39;7.50;;;4.23;;
8490;SDS011;4282;49.986;7.938;2023-08-01T01:30:08;11.50;;;4.83;;
8490;SDS011;4282;49.986;7.938;2023-08-01T01:32:36;8.13;;;3.90;;
8490;SDS011;4282;49.986;7.938;2023-08-01T01:35:05;7.47;;;3.90;;
8490;SDS011;4282;49.986;7.938;2023-08-01T01:37:34;7.23;;;4.43;;
8490;SDS011;4282;49.986;7.938;2023-08-01T01:40:05;8.07;;;4.70;;
8490;SDS011;4282;49.986;7.938;2023-08-01T01:42:34;6.80;;;4.13;;
8490;SDS011;4282;49.986;7.938;2023-08-01T01:45:03;5.77;;;4.20;;
8490;SDS011;4282;49.986;7.938;2023-08-01T01:47:32;6.53;;;3.93;;
8490;SDS011;4282;49.986;7.938;2023-08-01T01:50:01;6.57;;;4.10;;
8490;SDS011;4282;49.986;7.938;2023-08-01T01:52:30;4.60;;;4.07;;
8490;SDS011;4282;49.986;7.938;2023-08-01T01:54:58;7.70;;;4.17;;
8490;SDS011;4282;49.986;7.938;2023-08-01T01:57:29;6.73;;;4.57;;
8490;SDS011;4282;49.986;7.938;2023-08-01T01:59:58;6.07;;;4.10;;
8490;SDS011;4282;49.986;7.938;2023-08-01T02:02:26;7.73;;;4.03;;
8490;SDS011;4282;49.986;7.938;2023-08-01T02:04:54;8.00;;;4.17;;
8490;SDS011;4282;49.986;7.938;2023-08-01T02:07:22;9.37;;;4.40;;
8490;SDS011;4282;49.986;7.938;2023-08-01T02:09:51;5.47;;;3.53;;
8490;SDS011;4282;49.986;7.938;2023-08-01T02:12:19;6.07;;;3.63;;
8490;SDS011;4282;49.986;7.938;2023-08-01T02:14:50;5.23;;;3.50;;
8490;SDS011;4282;49.986;7.938;2023-08-01T02:17:18;5.83;;;3.63;;
8490;SDS011;4282;49.986;7.938;2023-08-01T02:19:46;5.57;;;4.00;;
8490;SDS011;4282;49.986;7.938;2023-08-01T02:22:15;5.73;;;3.90;;
8490;SDS011;4282;49.986;7.938;2023-08-01T02:24:43;6.50;;;3.63;;
8490;SDS011;4282;49.986;7.938;2023-08-01T02:27:11;4.30;;;3.30;;
8490;SDS011;4282;49.986;7.938;2023-08-01T02:29:39;4.57;;;3.57;;
8490;SDS011;4282;49.986;7.938;2023-08-01T02:32:11;6.37;;;3.17;;
8490;SDS011;4282;49.986;7.938;2023-08-01T02:34:40;6.57;;;3.10;;
8490;SDS011;4282;49.986;7.938;2023-08-01T02:37:08;7.80;;;3.57;;
8490;SDS011;4282;49.986;7.938;2023-08-01T02:39:36;5.87;;;2.67;;
8490;SDS011;4282;49.986;7.938;2023-08-01T02:42:04;3.27;;;2.60;;
8490;SDS011;4282;49.986;7.938;2023-08-01T02:44:33;3.70;;;2.87;;
8490;SDS011;4282;49.986;7.938;2023-08-01T02:47:01;2.80;;;2.30;;
8490;SDS011;4282;49.986;7.938;2023-08-01T02:49:33;5.47;;;2.70;;
8490;SDS011;4282;49.986;7.938;2023-08-01T02:52:02;5.43;;;2.40;;
8490;SDS011;4282;49.986;7.938;2023-08-01T02:54:30;4.33;;;2.57;;
8490;SDS011;4282;49.986;7.938;2023-08-01T02:56:59;4.07;;;2.20;;
8490;SDS011;4282;49.986;7.938;2023-08-01T02:59:27;3.30;;;1.90;;
8490;SDS011;4282;49.986;7.938;2023-08-01T03:01:58;3.67;;;2.13;;
8490;SDS011;4282;49.986;7.938;2023-08-01T03:04:27;2.27;;;1.60;;
8490;SDS011;4282;49.986;7.938;2023-08-01T03:06:57;3.90;;;1.50;;
8490;SDS011;4282;49.986;7.938;2023-08-01T03:09:26;5.33;;;2.10;;
8490;SDS011;4282;49.986;7.938;2023-08-01T03:11:54;5.33;;;2.00;;
8490;SDS011;4282;49.986;7.938;2023-08-01T03:14:22;1.90;;;1.70;;
8490;SDS011;4282;49.986;7.938;2023-08-01T03:16:51;2.47;;;1.50;;
8490;SDS011;4282;49.986;7.938;2023-08-01T03:19:19;2.63;;;1.70;;
8490;SDS011;4282;49.986;7.938;2023-08-01T03:21:48;1.90;;;1.40;;
8490;SDS011;4282;49.986;7.938;2023-08-01T03:24:19;3.20;;;1.50;;
8490;SDS011;4282;49.986;7.938;2023-08-01T03:26:47;4.07;;;1.70;;
8490;SDS011;4282;49.986;7.938;2023-08-01T03:29:15;2.30;;;1.40;;
8490;SDS011;4282;49.986;7.938;2023-08-01T03:31:44;2.50;;;1.40;;
8490;SDS011;4282;49.986;7.938;2023-08-01T03:34:12;2.63;;;1.37;;
8490;SDS011;4282;49.986;7.938;2023-08-01T03:36:40;1.37;;;1.17;;
8490;SDS011;4282;49.986;7.938;2023-08-01T03:39:08;1.37;;;1.10;;
8490;SDS011;4282;49.986;7.938;2023-08-01T03:41:39;1.10;;;1.00;;
8490;SDS011;4282;49.986;7.938;2023-08-01T03:44:08;2.03;;;1.40;;
8490;SDS011;4282;49.986;7.938;2023-08-01T03:46:36;4.07;;;1.37;;
8490;SDS011;4282;49.986;7.938;2023-08-01T03:49:05;2.07;;;1.10;;
8490;SDS011;4282;49.986;7.938;2023-08-01T03:51:33;1.70;;;1.17;;
8490;SDS011;4282;49.986;7.938;2023-08-01T03:54:02;2.60;;;1.17;;
8490;SDS011;4282;49.986;7.938;2023-08-01T03:56:31;1.53;;;1.20;;
8490;SDS011;4282;49.986;7.938;2023-08-01T03:59:02;3.10;;;1.40;;
8490;SDS011;4282;49.986;7.938;2023-08-01T04:01:30;3.63;;;1.10;;
8490;SDS011;4282;49.986;7.938;2023-08-01T04:03:58;1.73;;;1.17;;
8490;SDS011;4282;49.986;7.938;2023-08-01T04:06:26;2.10;;;1.90;;
8490;SDS011;4282;49.986;7.938;2023-08-01T04:08:55;3.27;;;1.60;;
8490;SDS011;4282;49.986;7.938;2023-08-01T04:11:25;1.77;;;1.63;;
8490;SDS011;4282;49.986;7.938;2023-08-01T04:13:55;3.33;;;2.00;;
8490;SDS011;4282;49.986;7.938;2023-08-01T04:16:25;4.07;;;2.30;;
8490;SDS011;4282;49.986;7.938;2023-08-01T04:18:57;4.30;;;2.53;;
8490;SDS011;4282;49.986;7.938;2023-08-01T04:21:25;4.67;;;2.67;;
8490;SDS011;4282;49.986;7.938;2023-08-01T04:23:53;4.07;;;2.07;;
8490;SDS011;4282;49.986;7.938;2023-08-01T04:26:22;4.37;;;2.37;;
8490;SDS011;4282;49.986;7.938;2023-08-01T04:28:50;4.20;;;2.20;;
8490;SDS011;4282;49.986;7.938;2023-08-01T04:31:19;3.33;;;2.47;;
8490;SDS011;4282;49.986;7.938;2023-08-01T04:33:50;3.87;;;2.00;;
8490;SDS011;4282;49.986;7.938;2023-08-01T04:36:18;2.83;;;1.73;;
8490;SDS011;4282;49.986;7.938;2023-08-01T04:38:47;3.00;;;1.90;;
8490;SDS011;4282;49.986;7.938;2023-08-01T04:41:15;3.93;;;2.20;;
8490;SDS011;4282;49.986;7.938;2023-08-01T04:43:43;3.83;;;1.60;;
8490;SDS011;4282;49.986;7.938;2023-08-01T04:46:12;3.00;;;1.53;;
8490;SDS011;4282;49.986;7.938;2023-08-01T04:48:40;3.00;;;1.47;;
8490;SDS011;4282;49.986;7.938;2023-08-01T04:51:11;1.70;;;1.50;;
8490;SDS011;4282;49.986;7.938;2023-08-01T04:53:39;2.17;;;1.50;;
8490;SDS011;4282;49.986;7.938;2023-08-01T04:56:07;3.27;;;1.30;;
8490;SDS011;4282;49.986;7.938;2023-08-01T04:58:36;3.27;;;1.50;;
8490;SDS011;4282;49.986;7.938;2023-08-01T05:01:04;2.13;;;1.80;;
8490;SDS011;4282;49.986;7.938;2023-08-01T05:03:32;1.43;;;1.20;;
8490;SDS011;4282;49.986;7.938;2023-08-01T05:06:00;1.87;;;1.50;;
8490;SDS011;4282;49.986;7.938;2023-08-01T05:08:31;1.97;;;1.33;;
8490;SDS011;4282;49.986;7.938;2023-08-01T05:11:00;3.07;;;1.60;;
8490;SDS011;4282;49.986;7.938;2023-08-01T05:13:28;2.00;;;1.40;;
8490;SDS011;4282;49.986;7.938;2023-08-01T05:15:56;2.63;;;1.60;;
8490;SDS011;4282;49.986;7.938;2023-08-01T05:18:24;2.50;;;1.17;;
8490;SDS011;4282;49.986;7.938;2023-08-01T05:20:53;1.60;;;1.50;;
8490;SDS011;4282;49.986;7.938;2023-08-01T05:23:21;2.70;;;1.27;;
8490;SDS011;4282;49.986;7.938;2023-08-01T05:25:52;4.03;;;1.63;;
8490;SDS011;4282;49.986;7.938;2023-08-01T05:28:20;2.17;;;1.20;;
8490;SDS011;4282;49.986;7.938;2023-08-01T05:30:48;2.60;;;1.40;;
8490;SDS011;4282;49.986;7.938;2023-08-01T05:33:17;2.43;;;1.03;;
8490;SDS011;4282;49.986;7.938;2023-08-01T05:35:45;1.63;;;1.00;;
8490;SDS011;4282;49.986;7.938;2023-08-01T05:38:13;2.40;;;1.07;;
8490;SDS011;4282;49.986;7.938;2023-08-01T05:40:41;2.60;;;1.33;;
8490;SDS011;4282;49.986;7.938;2023-08-01T05:43:12;2.43;;;0.93;;
8490;SDS011;4282;49.986;7.938;2023-08-01T05:45:40;1.27;;;0.90;;
8490;SDS011;4282;49.986;7.938;2023-08-01T05:48:09;1.30;;;1.10;;
8490;SDS011;4282;49.986;7.938;2023-08-01T05:50:38;1.23;;;1.07;;
8490;SDS011;4282;49.986;7.938;2023-08-01T05:53:07;1.40;;;1.03;;
8490;SDS011;4282;49.986;7.938;2023-08-01T05:55:35;1.57;;;0.70;;
8490;SDS011;4282;49.986;7.938;2023-08-01T05:58:03;1.70;;;0.90;;
8490;SDS011;4282;49.986;7.938;2023-08-01T06:00:34;3.03;;;0.83;;
8490;SDS011;4282;49.986;7.938;2023-08-01T06:03:02;0.50;;;0.43;;
8490;SDS011;4282;49.986;7.938;2023-08-01T06:05:31;0.57;;;0.53;;
8490;SDS011;4282;49.986;7.938;2023-08-01T06:07:59;0.83;;;0.47;;
8490;SDS011;4282;49.986;7.938;2023-08-01T06:10:28;0.57;;;0.50;;
8490;SDS011;4282;49.986;7.938;2023-08-01T06:12:56;1.30;;;0.50;;
8490;SDS011;4282;49.986;7.938;2023-08-01T06:15:25;0.90;;;0.60;;
8490;SDS011;4282;49.986;7.938;2023-08-01T06:17:56;1.80;;;0.70;;
8490;SDS011;4282;49.986;7.938;2023-08-01T06:20:24;0.67;;;0.50;;
8490;SDS011;4282;49.986;7.938;2023-08-01T06:22:52;0.90;;;0.53;;
8490;SDS011;4282;49.986;7.938;2023-08-01T06:25:20;1.23;;;0.40;;
8490;SDS011;4282;49.986;7.938;2023-08-01T06:27:49;0.83;;;0.50;;
8490;SDS011;4282;49.986;7.938;2023-08-01T06:30:17;0.70;;;0.40;;
8490;SDS011;4282;49.986;7.938;2023-08-01T06:32:45;1.37;;;0.50;;
8490;SDS011;4282;49.986;7.938;2023-08-01T06:35:16;0.33;;;0.30;;
8490;SDS011;4282;49.986;7.938;2023-08-01T06:37:46;0.40;;;0.40;;
8490;SDS011;4282;49.986;7.938;2023-08-01T06:40:14;1.33;;;0.50;;
8490;SDS011;4282;49.986;7.938;2023-08-01T06:42:42;0.60;;;0.30;;
8490;SDS011;4282;49.986;7.938;2023-08-01T06:45:11;0.80;;;0.20;;
8490;SDS011;4282;49.986;7.938;2023-08-01T06:47:42;0.30;;;0.30;;
8490;SDS011;4282;49.986;7.938;2023-08-01T06:50:10;0.20;;;0.20;;
8490;SDS011;4282;49.986;7.938;2023-08-01T06:52:41;1.33;;;0.60;;
8490;SDS011;4282;49.986;7.938;2023-08-01T06:55:09;0.37;;;0.30;;
8490;SDS011;4282;49.986;7.938;2023-08-01T06:57:37;1.37;;;0.57;;
8490;SDS011;4282;49.986;7.938;2023-08-01T07:00:06;1.03;;;0.60;;
8490;SDS011;4282;49.986;7.938;2023-08-01T07:02:36;0.50;;;0.50;;
8490;SDS011;4282;49.986;7.938;2023-08-01T07:05:05;0.83;;;0.50;;
8490;SDS011;4282;49.986;7.938;2023-08-01T07:07:33;0.90;;;0.40;;
8490;SDS011;4282;49.986;7.938;2023-08-01T07:10:04;0.60;;;0.60;;
8490;SDS011;4282;49.986;7.938;2023-08-01T07:12:34;0.73;;;0.40;;
8490;SDS011;4282;49.986;7.938;2023-08-01T07:15:03;0.67;;;0.57;;
8490;SDS011;4282;49.986;7.938;2023-08-01T07:17:32;0.37;;;0.37;;
8490;SDS011;4282;49.986;7.938;2023-08-01T07:20:00;0.80;;;0.47;;
8490;SDS011;4282;49.986;7.938;2023-08-01T07:22:28;1.17;;;0.50;;
8490;SDS011;4282;49.986;7.938;2023-08-01T07:24:58;1.90;;;0.60;;
8490;SDS011;4282;49.986;7.938;2023-08-01T07:27:29;0.77;;;0.77;;
8490;SDS011;4282;49.986;7.938;2023-08-01T07:29:57;0.93;;;0.73;;
8490;SDS011;4282;49.986;7.938;2023-08-01T07:32:26;0.60;;;0.60;;
8490;SDS011;4282;49.986;7.938;2023-08-01T07:34:54;0.73;;;0.60;;
8490;SDS011;4282;49.986;7.938;2023-08-01T07:37:22;0.87;;;0.73;;
8490;SDS011;4282;49.986;7.938;2023-08-01T07:39:53;1.83;;;0.97;;
8490;SDS011;4282;49.986;7.938;2023-08-01T07:42:21;0.73;;;0.70;;
8490;SDS011;4282;49.986;7.938;2023-08-01T07:44:52;1.27;;;0.80;;
8490;SDS011;4282;49.986;7.938;2023-08-01T07:47:21;0.60;;;0.60;;
8490;SDS011;4282;49.986;7.938;2023-08-01T07:49:49;1.50;;;0.83;;
8490;SDS011;4282;49.986;7.938;2023-08-01T07:52:17;2.27;;;1.00;;
8490;SDS011;4282;49.986;7.938;2023-08-01T07:54:46;0.70;;;0.70;;
8490;SDS011;4282;49.986;7.938;2023-08-01T07:57:14;1.10;;;1.00;;
8490;SDS011;4282;49.986;7.938;2023-08-01T07:59:42;0.87;;;0.73;;
8490;SDS011;4282;49.986;7.938;2023-08-01T08:02:13;1.47;;;0.87;;
8490;SDS011;4282;49.986;7.938;2023-08-01T08:04:41;0.80;;;0.80;;
8490;SDS011;4282;49.986;7.938;2023-08-01T08:07:09;1.50;;;0.90;;
8490;SDS011;4282;49.986;7.938;2023-08-01T08:09:38;1.17;;;0.90;;
8490;SDS011;4282;49.986;7.938;2023-08-01T08:12:06;1.05;;;0.77;;
8490;SDS011;4282;49.986;7.938;2023-08-01T08:14:35;0.70;;;0.70;;
8490;SDS011;4282;49.986;7.938;2023-08-01T08:17:03;1.50;;;1.02;;
8490;SDS011;4282;49.986;7.938;2023-08-01T08:19:35;3.53;;;1.10;;
8490;SDS011;4282;49.986;7.938;2023-08-01T08:22:03;2.03;;;1.25;;
8490;SDS011;4282;49.986;7.938;2023-08-01T08:24:32;1.40;;;1.00;;
8490;SDS011;4282;49.986;7.938;2023-08-01T08:27:01;1.33;;;0.95;;
8490;SDS011;4282;49.986;7.938;2023-08-01T08:29:29;1.00;;;0.90;;
8490;SDS011;4282;49.986;7.938;2023-08-01T08:31:58;2.38;;;1.02;;
8490;SDS011;4282;49.986;7.938;2023-08-01T08:34:27;2.30;;;0.90;;
8490;SDS011;4282;49.986;7.938;2023-08-01T08:36:58;2.20;;;0.90;;
8490;SDS011;4282;49.986;7.938;2023-08-01T08:39:26;0.77;;;0.70;;
8490;SDS011;4282;49.986;7.938;2023-08-01T08:41:54;0.80;;;0.80;;
8490;SDS011;4282;49.986;7.938;2023-08-01T08:44:22;1.27;;;1.10;;
8490;SDS011;4282;49.986;7.938;2023-08-01T08:46:55;1.48;;;0.90;;
8490;SDS011;4282;49.986;7.938;2023-08-01T08:49:23;1.23;;;1.00;;
8490;SDS011;4282;49.986;7.938;2023-08-01T08:51:52;1.35;;;1.00;;
8490;SDS011;4282;49.986;7.938;2023-08-01T08:54:24;1.65;;;1.00;;
8490;SDS011;4282;49.986;7.938;2023-08-01T08:56:54;1.15;;;1.05;;
8490;SDS011;4282;49.986;7.938;2023-08-01T08:59:23;3.65;;;1.15;;
8490;SDS011;4282;49.986;7.938;2023-08-01T09:01:53;2.85;;;1.40;;
8490;SDS011;4282;49.986;7.938;2023-08-01T09:04:21;1.65;;;1.20;;
8490;SDS011;4282;49.986;7.938;2023-08-01T09:06:49;3.90;;;1.90;;
8490;SDS011;4282;49.986;7.938;2023-08-01T09:09:19;1.55;;;1.40;;
8490;SDS011;4282;49.986;7.938;2023-08-01T09:11:50;1.40;;;1.20;;
8490;SDS011;4282;49.986;7.938;2023-08-01T09:14:21;1.27;;;0.90;;
8490;SDS011;4282;49.986;7.938;2023-08-01T09:16:49;6.13;;;1.33;;
8490;SDS011;4282;49.986;7.938;2023-08-01T09:19:17;2.08;;;1.25;;
8490;SDS011;4282;49.986;7.938;2023-08-01T09:21:46;1.90;;;1.10;;
8490;SDS011;4282;49.986;7.938;2023-08-01T09:24:16;1.83;;;1.60;;
8490;SDS011;4282;49.986;7.938;2023-08-01T09:26:45;1.30;;;1.20;;
8490;SDS011;4282;49.986;7.938;2023-08-01T09:29:18;2.17;;;1.27;;
8490;SDS011;4282;49.986;7.938;2023-08-01T09:31:48;1.73;;;1.20;;
8490;SDS011;4282;49.986;7.938;2023-08-01T09:34:18;2.22;;;1.35;;
8490;SDS011;4282;49.986;7.938;2023-08-01T09:36:47;2.20;;;1.20;;
8490;SDS011;4282;49.986;7.938;2023-08-01T09:39:15;1.85;;;1.30;;
8490;SDS011;4282;49.986;7.938;2023-08-01T09:41:44;3.17;;;1.17;;
8490;SDS011;4282;49.986;7.938;2023-08-01T09:44:15;1.58;;;1.10;;
8490;SDS011;4282;49.986;7.938;2023-08-01T09:46:54;2.92;;;1.20;;
8490;SDS011;4282;49.986;7.938;2023-08-01T09:49:23;1.58;;;1.20;;
8490;SDS011;4282;49.986;7.938;2023-08-01T09:51:51;1.90;;;1.20;;
8490;SDS011;4282;49.986;7.938;2023-08-01T09:54:20;1.33;;;1.23;;
8490;SDS011;4282;49.986;7.938;2023-08-01T09:56:49;3.42;;;1.38;;
8490;SDS011;4282;49.986;7.938;2023-08-01T09:59:22;2.92;;;1.40;;
8490;SDS011;4282;49.986;7.938;2023-08-01T10:01:52;1.30;;;1.20;;
8490;SDS011;4282;49.986;7.938;2023-08-01T10:04:22;2.83;;;1.20;;
8490;SDS011;4282;49.986;7.938;2023-08-01T10:06:53;2.25;;;1.42;;
8490;SDS011;4282;49.986;7.938;2023-08-01T10:09:22;1.95;;;1.38;;
8490;SDS011;4282;49.986;7.938;2023-08-01T10:11:51;2.60;;;1.70;;
8490;SDS011;4282;49.986;7.938;2023-08-01T10:14:22;2.47;;;1.42;;
8490;SDS011;4282;49.986;7.938;2023-08-01T10:16:51;1.67;;;1.45;;
8490;SDS011;4282;49.986;7.938;2023-08-01T10:19:20;3.63;;;1.50;;
8490;SDS011;4282;49.986;7.938;2023-08-01T10:21:50;1.95;;;1.40;;
8490;SDS011;4282;49.986;7.938;2023-08-01T10:24:18;1.77;;;1.27;;
8490;SDS011;4282;49.986;7.938;2023-08-01T10:26:47;2.78;;;1.25;;
8490;SDS011;4282;49.986;7.938;2023-08-01T10:29:15;2.13;;;1.33;;
8490;SDS011;4282;49.986;7.938;2023-08-01T10:31:55;1.75;;;1.10;;
8490;SDS011;4282;49.986;7.938;2023-08-01T10:34:23;1.75;;;1.10;;
8490;SDS011;4282;49.986;7.938;2023-08-01T10:36:55;3.15;;;1.50;;
8490;SDS011;4282;49.986;7.938;2023-08-01T10:39:24;1.73;;;1.17;;
8490;SDS011;4282;49.986;7.938;2023-08-01T10:41:58;2.75;;;1.50;;
8490;SDS011;4282;49.986;7.938;2023-08-01T10:44:27;1.90;;;1.25;;
8490;SDS011;4282;49.986;7.938;2023-08-01T10:46:59;3.20;;;1.20;;
8490;SDS011;4282;49.986;7.938;2023-08-01T10:49:35;2.25;;;1.80;;
8490;SDS011;4282;49.986;7.938;2023-08-01T10:52:14;4.22;;;1.65;;
8490;SDS011;4282;49.986;7.938;2023-08-01T10:54:43;2.88;;;1.85;;
8490;SDS011;4282;49.986;7.938;2023-08-01T10:57:15;2.72;;;1.40;;
8490;SDS011;4282;49.986;7.938;2023-08-01T10:59:44;1.50;;;1.23;;
8490;SDS011;4282;49.986;7.938;2023-08-01T11:02:19;2.58;;;1.60;;
8490;SDS011;4282;49.986;7.938;2023-08-01T11:04:57;2.28;;;1.25;;
8490;SDS011;4282;49.986;7.938;2023-08-01T11:09:50;2.70;;;1.40;;
8490;SDS011;4282;49.986;7.938;2023-08-01T11:12:30;1.83;;;1.23;;
8490;SDS011;4282;49.986;7.938;2023-08-01T11:14:59;2.10;;;1.23;;
8490;SDS011;4282;49.986;7.938;2023-08-01T11:17:28;2.72;;;1.42;;
8490;SDS011;4282;49.986;7.938;2023-08-01T11:20:03;1.73;;;1.50;;
8490;SDS011;4282;49.986;7.938;2023-08-01T11:22:33;2.60;;;1.30;;
8490;SDS011;4282;49.986;7.938;2023-08-01T11:25:04;2.08;;;1.20;;
8490;SDS011;4282;49.986;7.938;2023-08-01T11:27:33;2.45;;;1.52;;
8490;SDS011;4282;49.986;7.938;2023-08-01T11:30:02;2.80;;;1.48;;
8490;SDS011;4282;49.986;7.938;2023-08-01T11:32:35;2.03;;;1.20;;
8490;SDS011;4282;49.986;7.938;2023-08-01T11:35:04;1.80;;;1.35;;
8490;SDS011;4282;49.986;7.938;2023-08-01T11:37:33;2.63;;;1.80;;
8490;SDS011;4282;49.986;7.938;2023-08-01T11:40:04;2.60;;;1.25;;
8490;SDS011;4282;49.986;7.938;2023-08-01T11:42:35;2.60;;;1.50;;
8490;SDS011;4282;49.986;7.938;2023-08-01T11:45:07;3.50;;;1.77;;
8490;SDS011;4282;49.986;7.938;2023-08-01T11:47:36;2.22;;;1.52;;
8490;SDS011;4282;49.986;7.938;2023-08-01T11:50:05;3.47;;;1.80;;
8490;SDS011;4282;49.986;7.938;2023-08-01T11:52:34;2.20;;;1.20;;
8490;SDS011;4282;49.986;7.938;2023-08-01T11:55:06;1.60;;;1.40;;
8490;SDS011;4282;49.986;7.938;2023-08-01T11:57:35;3.05;;;1.52;;
8490;SDS011;4282;49.986;7.938;2023-08-01T12:00:03;2.30;;;1.23;;
8490;SDS011;4282;49.986;7.938;2023-08-01T12:02:34;2.97;;;1.50;;
8490;SDS011;4282;49.986;7.938;2023-08-01T12:05:02;2.22;;;1.30;;
8490;SDS011;4282;49.986;7.938;2023-08-01T12:07:31;4.95;;;1.55;;
8490;SDS011;4282;49.986;7.938;2023-08-01T12:09:59;3.22;;;1.48;;
8490;SDS011;4282;49.986;7.938;2023-08-01T12:12:31;2.35;;;1.52;;
8490;SDS011;4282;49.986;7.938;2023-08-01T12:14:59;3.17;;;1.60;;
8490;SDS011;4282;49.986;7.938;2023-08-01T12:17:27;2.13;;;1.33;;
8490;SDS011;4282;49.986;7.938;2023-08-01T12:19:56;2.67;;;1.45;;
8490;SDS011;4282;49.986;7.938;2023-08-01T12:22:24;4.45;;;1.52;;
8490;SDS011;4282;49.986;7.938;2023-08-01T12:24:52;2.45;;;1.50;;
8490;SDS011;4282;49.986;7.938;2023-08-01T12:27:21;1.90;;;1.40;;
8490;SDS011;4282;49.986;7.938;2023-08-01T12:29:49;1.95;;;1.30;;
8490;SDS011;4282;49.986;7.938;2023-08-01T12:32:17;1.90;;;1.60;;
8490;SDS011;4282;49.986;7.938;2023-08-01T12:34:45;1.88;;;1.30;;
8490;SDS011;4282;49.986;7.938;2023-08-01T12:37:14;3.17;;;1.42;;
8490;SDS011;4282;49.986;7.938;2023-08-01T12:39:42;1.20;;;1.00;;
8490;SDS011;4282;49.986;7.938;2023-08-01T12:42:10;6.57;;;1.67;;
8490;SDS011;4282;49.986;7.938;2023-08-01T12:44:38;3.80;;;1.38;;
8490;SDS011;4282;49.986;7.938;2023-08-01T12:47:09;2.65;;;1.60;;
8490;SDS011;4282;49.986;7.938;2023-08-01T12:49:37;2.47;;;1.85;;
8490;SDS011;4282;49.986;7.938;2023-08-01T12:52:06;1.58;;;1.20;;
8490;SDS011;4282;49.986;7.938;2023-08-01T12:54:34;2.58;;;1.25;;
8490;SDS011;4282;49.986;7.938;2023-08-01T12:57:03;2.47;;;1.38;;
8490;SDS011;4282;49.986;7.938;2023-08-01T12:59:31;2.25;;;1.10;;
8490;SDS011;4282;49.986;7.938;2023-08-01T13:02:00;1.55;;;1.30;;
8490;SDS011;4282;49.986;7.938;2023-08-01T13:04:35;1.95;;;1.40;;
8490;SDS011;4282;49.986;7.938;2023-08-01T13:07:04;1.38;;;1.15;;
8490;SDS011;4282;49.986;7.938;2023-08-01T13:09:33;2.25;;;1.73;;
8490;SDS011;4282;49.986;7.938;2023-08-01T13:12:02;2.67;;;1.25;;
8490;SDS011;4282;49.986;7.938;2023-08-01T13:14:31;1.70;;;1.02;;
8490;SDS011;4282;49.986;7.938;2023-08-01T13:16:59;5.70;;;1.67;;
8490;SDS011;4282;49.986;7.938;2023-08-01T13:19:28;2.97;;;1.40;;
8490;SDS011;4282;49.986;7.938;2023-08-01T13:21:58;2.83;;;1.40;;
8490;SDS011;4282;49.986;7.938;2023-08-01T13:24:27;2.75;;;1.50;;
8490;SDS011;4282;49.986;7.938;2023-08-01T13:26:55;3.47;;;1.60;;
8490;SDS011;4282;49.986;7.938;2023-08-01T13:29:23;5.95;;;3.55;;
8490;SDS011;4282;49.986;7.938;2023-08-01T13:31:51;2.10;;;1.38;;
8490;SDS011;4282;49.986;7.938;2023-08-01T13:34:20;2.58;;;1.58;;
8490;SDS011;4282;49.986;7.938;2023-08-01T13:36:49;2.80;;;1.50;;
8490;SDS011;4282;49.986;7.938;2023-08-01T13:39:20;1.85;;;1.40;;
8490;SDS011;4282;49.986;7.938;2023-08-01T13:41:48;3.83;;;1.67;;
8490;SDS011;4282;49.986;7.938;2023-08-01T13:44:16;1.73;;;1.42;;
8490;SDS011;4282;49.986;7.938;2023-08-01T13:46:44;3.67;;;1.80;;
8490;SDS011;4282;49.986;7.938;2023-08-01T13:49:13;4.95;;;2.03;;
8490;SDS011;4282;49.986;7.938;2023-08-01T13:51:41;1.98;;;1.50;;
8490;SDS011;4282;49.986;7.938;2023-08-01T13:54:09;2.45;;;1.52;;
8490;SDS011;4282;49.986;7.938;2023-08-01T13:56:40;2.15;;;1.70;;
8490;SDS011;4282;49.986;7.938;2023-08-01T13:59:08;2.10;;;1.30;;
8490;SDS011;4282;49.986;7.938;2023-08-01T14:01:37;2.28;;;1.75;;
8490;SDS011;4282;49.986;7.938;2023-08-01T14:04:05;4.60;;;1.85;;
8490;SDS011;4282;49.986;7.938;2023-08-01T14:06:33;3.92;;;2.33;;
8490;SDS011;4282;49.986;7.938;2023-08-01T14:09:02;3.40;;;1.88;;
8490;SDS011;4282;49.986;7.938;2023-08-01T14:11:30;3.33;;;1.52;;
8490;SDS011;4282;49.986;7.938;2023-08-01T14:14:01;4.28;;;2.00;;
8490;SDS011;4282;49.986;7.938;2023-08-01T14:16:29;4.18;;;1.80;;
8490;SDS011;4282;49.986;7.938;2023-08-01T14:18:58;3.15;;;1.77;;
8490;SDS011;4282;49.986;7.938;2023-08-01T14:21:26;3.47;;;1.70;;
8490;SDS011;4282;49.986;7.938;2023-08-01T14:23:55;1.85;;;1.40;;
8490;SDS011;4282;49.986;7.938;2023-08-01T14:26:23;6.38;;;1.98;;
8490;SDS011;4282;49.986;7.938;2023-08-01T14:28:51;3.25;;;1.88;;
8490;SDS011;4282;49.986;7.938;2023-08-01T14:31:22;2.53;;;1.65;;
8490;SDS011;4282;49.986;7.938;2023-08-01T14:33:50;1.83;;;1.48;;
8490;SDS011;4282;49.986;7.938;2023-08-01T14:36:18;3.67;;;2.33;;
8490;SDS011;4282;49.986;7.938;2023-08-01T14:38:47;3.83;;;1.75;;
8490;SDS011;4282;49.986;7.938;2023-08-01T14:41:19;3.92;;;1.63;;
8490;SDS011;4282;49.986;7.938;2023-08-01T14:43:47;3.88;;;1.40;;
8490;SDS011;4282;49.986;7.938;2023-08-01T14:46:16;1.83;;;1.35;;
8490;SDS011;4282;49.986;7.938;2023-08-01T14:48:47;3.22;;;1.77;;
8490;SDS011;4282;49.986;7.938;2023-08-01T14:51:16;5.18;;;1.50;;
8490;SDS011;4282;49.986;7.938;2023-08-01T14:53:44;4.35;;;1.70;;
8490;SDS011;4282;49.986;7.938;2023-08-01T14:56:12;2.30;;;1.50;;
8490;SDS011;4282;49.986;7.938;2023-08-01T14:58:40;1.58;;;1.35;;
8490;SDS011;4282;49.986;7.938;2023-08-01T15:01:12;1.55;;;1.17;;
8490;SDS011;4282;49.986;7.938;2023-08-01T15:03:40;1.50;;;1.27;;
8490;SDS011;4282;49.986;7.938;2023-08-01T15:06:11;1.48;;;1.23;;
8490;SDS011;4282;49.986;7.938;2023-08-01T15:08:40;2.58;;;1.50;;
8490;SDS011;4282;49.986;7.938;2023-08-01T15:11:09;1.52;;;1.27;;
8490;SDS011;4282;49.986;7.938;2023-08-01T15:13:37;1.70;;;1.35;;
8490;SDS011;4282;49.986;7.938;2023-08-01T15:16:08;1.88;;;1.20;;
8490;SDS011;4282;49.986;7.938;2023-08-01T15:18:38;1.33;;;1.00;;
8490;SDS011;4282;49.986;7.938;2023-08-01T15:21:06;1.70;;;1.20;;
8490;SDS011;4282;49.986;7.938;2023-08-01T15:23:37;2.70;;;1.55;;
8490;SDS011;4282;49.986;7.938;2023-08-01T15:26:05;2.38;;;1.08;;
8490;SDS011;4282;49.986;7.938;2023-08-01T15:28:34;2.13;;;1.08;;